Terminal Aerodrome Forecast
Issued by NWS

Current Version | Previous Version | Text Only | Print | Product List | Glossary Off
Versions: 1 2 3 4 5 6 7 8 9 10 11 12 13 14 15 16 17 18 19

000
FTUS41 KRLX 191100
TAFCKB
TAF
KCKB 191128Z 1912/2012 03004KT P6SM BKN250
     FM191300 03004KT P6SM SCT250
     FM191600 03007KT P6SM SCT250
     FM200000 00000KT P6SM SKC=

USA.gov is the U.S. government's official web portal to all federal, state and local government web resources and services.